Smithsburg, MD

3:24 AM EDT on August 26, 2016 (GMT -0400)
APRSWXNET | | Change Station

Elev 564 ft 39.53 °N, 77.63 °W | Updated 21 minutes ago

Scattered Clouds
Scattered Clouds
78.0 °F
Feels Like 80 °F
N
3.0
Wind Variable Wind from SSW
Gusts 7.0 mph

Today
High -- | Low -- °F
--% Chance of Precip.
Yesterday
High -- | Low -- °F
Precip. -- in
Pressure 30.04 in
Visibility 10.0 miles
Clouds Few 2700 ft
Scattered Clouds 3300 ft
Heat Index 80 °F
Dew Point 73.0 °F
Humidity 86%
Rainfall in
Snow Depth Not available.
6:33 AM 7:49 PM
Last Quarter, 37% visible
METAR KRSP 260654Z AUTO 28008G16KT 250V310 10SM FEW027 SCT033 25/22 A3007 RMK AO2 SLP172 T02500222 $
Pressure 30.04 in
Visibility 10.0 miles
Clouds Few 2700 ft
Scattered Clouds 3300 ft
Heat Index 80 °F
Dew Point 73.0 °F
Humidity 86%
Rainfall in
Snow Depth Not available.
6:33 AM 7:49 PM
Last Quarter, 37% visible
METAR KRSP 260654Z AUTO 28008G16KT 250V310 10SM FEW027 SCT033 25/22 A3007 RMK AO2 SLP172 T02500222 $

10-Day Weather Forecast

Almanac

Astronomy

Aug. 26, 2016 Rise Set
Actual Time
Civil Twilight
Nautical Twilight
Astronomical Twilight
Moon
Length of Visible Light
Length of Day
Tomorrow will be .
, % of the Moon is Illuminated

Today's Extremes

State Highs State Lows

Community

WunderPhotos

Upload Photos

1,935,062 photos uploaded!

WunderBlog® & News

Nearby

Air Quality

  Air Quality AQ Index Pollutant
Not available.

Snow Depth

Station Depth Elevation

Earthquake Activity

City Distance Mag. Time & Date
Minimum magnitude displayed is 2.5.

Coastal Water Temperatures

Place Temperature

Stations

Nearby Weather Stations

Station Location Temp. Windchill Dew Point Humidity Wind Precip. Elev Updated Type
                   

Watches & Warnings

There are currently no watches in effect.